sensor_id;sensor_type;location;lat;lon;timestamp;P1;durP1;ratioP1;P2;durP2;ratioP2
5428;SDS011;2737;52.386;9.980;2024-02-21T00:00:15;23.83;;;10.97;;
5428;SDS011;2737;52.386;9.980;2024-02-21T00:02:43;29.83;;;12.10;;
5428;SDS011;2737;52.386;9.980;2024-02-21T00:05:10;26.77;;;11.63;;
5428;SDS011;2737;52.386;9.980;2024-02-21T00:07:39;28.30;;;10.80;;
5428;SDS011;2737;52.386;9.980;2024-02-21T00:10:07;28.80;;;11.97;;
5428;SDS011;2737;52.386;9.980;2024-02-21T00:12:35;29.80;;;12.50;;
5428;SDS011;2737;52.386;9.980;2024-02-21T00:15:02;39.10;;;12.87;;
5428;SDS011;2737;52.386;9.980;2024-02-21T00:17:29;25.40;;;11.20;;
5428;SDS011;2737;52.386;9.980;2024-02-21T00:19:56;31.90;;;12.90;;
5428;SDS011;2737;52.386;9.980;2024-02-21T00:22:23;27.90;;;12.23;;
5428;SDS011;2737;52.386;9.980;2024-02-21T00:24:54;34.83;;;12.23;;
5428;SDS011;2737;52.386;9.980;2024-02-21T00:27:23;28.93;;;12.20;;
5428;SDS011;2737;52.386;9.980;2024-02-21T00:29:50;27.63;;;12.30;;
5428;SDS011;2737;52.386;9.980;2024-02-21T00:32:17;30.47;;;12.57;;
5428;SDS011;2737;52.386;9.980;2024-02-21T00:34:44;28.10;;;12.50;;
5428;SDS011;2737;52.386;9.980;2024-02-21T00:37:11;44.00;;;12.73;;
5428;SDS011;2737;52.386;9.980;2024-02-21T00:39:38;24.80;;;12.00;;
5428;SDS011;2737;52.386;9.980;2024-02-21T00:42:06;32.40;;;12.73;;
5428;SDS011;2737;52.386;9.980;2024-02-21T00:44:33;27.40;;;11.40;;
5428;SDS011;2737;52.386;9.980;2024-02-21T00:47:00;24.27;;;11.53;;
5428;SDS011;2737;52.386;9.980;2024-02-21T00:49:27;29.53;;;13.13;;
5428;SDS011;2737;52.386;9.980;2024-02-21T00:51:54;29.97;;;12.40;;
5428;SDS011;2737;52.386;9.980;2024-02-21T00:54:21;44.83;;;12.80;;
5428;SDS011;2737;52.386;9.980;2024-02-21T00:56:48;29.27;;;12.90;;
5428;SDS011;2737;52.386;9.980;2024-02-21T00:59:17;30.80;;;12.37;;
5428;SDS011;2737;52.386;9.980;2024-02-21T01:01:44;35.53;;;12.70;;
5428;SDS011;2737;52.386;9.980;2024-02-21T01:04:11;27.77;;;13.03;;
5428;SDS011;2737;52.386;9.980;2024-02-21T01:06:38;41.30;;;13.47;;
5428;SDS011;2737;52.386;9.980;2024-02-21T01:09:08;28.33;;;12.80;;
5428;SDS011;2737;52.386;9.980;2024-02-21T01:11:35;32.53;;;14.13;;
5428;SDS011;2737;52.386;9.980;2024-02-21T01:14:02;28.90;;;13.50;;
5428;SDS011;2737;52.386;9.980;2024-02-21T01:16:30;33.67;;;13.53;;
5428;SDS011;2737;52.386;9.980;2024-02-21T01:18:57;27.70;;;13.03;;
5428;SDS011;2737;52.386;9.980;2024-02-21T01:21:24;34.17;;;13.47;;
5428;SDS011;2737;52.386;9.980;2024-02-21T01:23:51;32.23;;;13.10;;
5428;SDS011;2737;52.386;9.980;2024-02-21T01:26:18;36.33;;;14.17;;
5428;SDS011;2737;52.386;9.980;2024-02-21T01:28:45;26.33;;;12.77;;
5428;SDS011;2737;52.386;9.980;2024-02-21T01:31:12;28.80;;;12.43;;
5428;SDS011;2737;52.386;9.980;2024-02-21T01:33:41;33.13;;;14.27;;
5428;SDS011;2737;52.386;9.980;2024-02-21T01:36:08;34.73;;;14.73;;
5428;SDS011;2737;52.386;9.980;2024-02-21T01:38:35;27.40;;;13.83;;
5428;SDS011;2737;52.386;9.980;2024-02-21T01:41:02;24.63;;;11.83;;
5428;SDS011;2737;52.386;9.980;2024-02-21T01:43:30;32.90;;;13.53;;
5428;SDS011;2737;52.386;9.980;2024-02-21T01:45:57;32.03;;;13.47;;
5428;SDS011;2737;52.386;9.980;2024-02-21T01:48:24;33.00;;;14.07;;
5428;SDS011;2737;52.386;9.980;2024-02-21T01:50:54;29.80;;;12.80;;
5428;SDS011;2737;52.386;9.980;2024-02-21T01:53:22;25.10;;;12.23;;
5428;SDS011;2737;52.386;9.980;2024-02-21T01:55:51;30.90;;;12.37;;
5428;SDS011;2737;52.386;9.980;2024-02-21T01:58:19;31.03;;;13.87;;
5428;SDS011;2737;52.386;9.980;2024-02-21T02:00:46;31.83;;;11.93;;
5428;SDS011;2737;52.386;9.980;2024-02-21T02:03:14;27.13;;;12.57;;
5428;SDS011;2737;52.386;9.980;2024-02-21T02:05:42;30.77;;;12.10;;
5428;SDS011;2737;52.386;9.980;2024-02-21T02:08:12;31.47;;;11.83;;
5428;SDS011;2737;52.386;9.980;2024-02-21T02:10:40;31.23;;;13.30;;
5428;SDS011;2737;52.386;9.980;2024-02-21T02:13:07;28.07;;;12.40;;
5428;SDS011;2737;52.386;9.980;2024-02-21T02:15:38;26.53;;;12.00;;
5428;SDS011;2737;52.386;9.980;2024-02-21T02:18:06;29.60;;;13.23;;
5428;SDS011;2737;52.386;9.980;2024-02-21T02:20:33;30.47;;;12.60;;
5428;SDS011;2737;52.386;9.980;2024-02-21T02:23:00;34.13;;;12.07;;
5428;SDS011;2737;52.386;9.980;2024-02-21T02:25:33;26.37;;;12.60;;
5428;SDS011;2737;52.386;9.980;2024-02-21T02:28:00;24.37;;;12.00;;
5428;SDS011;2737;52.386;9.980;2024-02-21T02:30:27;26.93;;;11.53;;
5428;SDS011;2737;52.386;9.980;2024-02-21T02:32:55;24.67;;;12.40;;
5428;SDS011;2737;52.386;9.980;2024-02-21T02:35:22;27.07;;;12.23;;
5428;SDS011;2737;52.386;9.980;2024-02-21T02:37:49;27.67;;;11.50;;
5428;SDS011;2737;52.386;9.980;2024-02-21T02:40:16;26.60;;;12.00;;
5428;SDS011;2737;52.386;9.980;2024-02-21T02:42:45;22.33;;;10.93;;
5428;SDS011;2737;52.386;9.980;2024-02-21T02:45:14;24.30;;;12.83;;
5428;SDS011;2737;52.386;9.980;2024-02-21T02:47:41;24.43;;;12.30;;
5428;SDS011;2737;52.386;9.980;2024-02-21T02:50:08;25.40;;;12.73;;
5428;SDS011;2737;52.386;9.980;2024-02-21T02:52:35;27.53;;;12.40;;
5428;SDS011;2737;52.386;9.980;2024-02-21T02:55:03;26.90;;;11.83;;
5428;SDS011;2737;52.386;9.980;2024-02-21T02:57:31;32.27;;;12.67;;
5428;SDS011;2737;52.386;9.980;2024-02-21T02:59:59;30.67;;;12.30;;
5428;SDS011;2737;52.386;9.980;2024-02-21T03:02:26;30.73;;;11.83;;
5428;SDS011;2737;52.386;9.980;2024-02-21T03:04:53;23.23;;;11.93;;
5428;SDS011;2737;52.386;9.980;2024-02-21T03:07:20;26.43;;;13.03;;
5428;SDS011;2737;52.386;9.980;2024-02-21T03:09:47;30.63;;;12.10;;
5428;SDS011;2737;52.386;9.980;2024-02-21T03:12:14;24.90;;;12.30;;
5428;SDS011;2737;52.386;9.980;2024-02-21T03:14:49;27.20;;;12.83;;
5428;SDS011;2737;52.386;9.980;2024-02-21T03:17:17;27.03;;;11.17;;
5428;SDS011;2737;52.386;9.980;2024-02-21T03:19:44;27.63;;;12.57;;
5428;SDS011;2737;52.386;9.980;2024-02-21T03:22:11;24.70;;;12.67;;
5428;SDS011;2737;52.386;9.980;2024-02-21T03:24:38;25.47;;;11.40;;
5428;SDS011;2737;52.386;9.980;2024-02-21T03:27:05;24.67;;;11.70;;
5428;SDS011;2737;52.386;9.980;2024-02-21T03:29:33;17.50;;;11.03;;
5428;SDS011;2737;52.386;9.980;2024-02-21T03:32:00;24.00;;;11.50;;
5428;SDS011;2737;52.386;9.980;2024-02-21T03:34:28;26.70;;;12.03;;
5428;SDS011;2737;52.386;9.980;2024-02-21T03:36:55;24.97;;;10.80;;
5428;SDS011;2737;52.386;9.980;2024-02-21T03:39:22;28.33;;;11.77;;
5428;SDS011;2737;52.386;9.980;2024-02-21T03:41:49;23.57;;;11.47;;
5428;SDS011;2737;52.386;9.980;2024-02-21T03:44:16;28.70;;;11.90;;
5428;SDS011;2737;52.386;9.980;2024-02-21T03:46:43;33.57;;;12.67;;
5428;SDS011;2737;52.386;9.980;2024-02-21T03:49:10;23.10;;;11.17;;
5428;SDS011;2737;52.386;9.980;2024-02-21T03:51:39;20.27;;;11.23;;
5428;SDS011;2737;52.386;9.980;2024-02-21T03:54:06;26.93;;;12.07;;
5428;SDS011;2737;52.386;9.980;2024-02-21T03:56:36;34.30;;;12.97;;
5428;SDS011;2737;52.386;9.980;2024-02-21T03:59:04;26.47;;;11.87;;
5428;SDS011;2737;52.386;9.980;2024-02-21T04:01:32;22.63;;;11.80;;
5428;SDS011;2737;52.386;9.980;2024-02-21T04:03:59;32.10;;;12.13;;
5428;SDS011;2737;52.386;9.980;2024-02-21T04:06:26;33.70;;;12.23;;
5428;SDS011;2737;52.386;9.980;2024-02-21T04:08:54;32.67;;;13.03;;
5428;SDS011;2737;52.386;9.980;2024-02-21T04:11:21;26.60;;;12.40;;
5428;SDS011;2737;52.386;9.980;2024-02-21T04:13:48;24.13;;;13.00;;
5428;SDS011;2737;52.386;9.980;2024-02-21T04:16:16;23.53;;;11.40;;
5428;SDS011;2737;52.386;9.980;2024-02-21T04:18:44;25.03;;;11.27;;
5428;SDS011;2737;52.386;9.980;2024-02-21T04:21:13;34.87;;;12.50;;
5428;SDS011;2737;52.386;9.980;2024-02-21T04:23:41;28.00;;;12.87;;
5428;SDS011;2737;52.386;9.980;2024-02-21T04:26:10;27.63;;;12.87;;
5428;SDS011;2737;52.386;9.980;2024-02-21T04:28:37;31.03;;;12.97;;
5428;SDS011;2737;52.386;9.980;2024-02-21T04:31:04;32.67;;;12.63;;
5428;SDS011;2737;52.386;9.980;2024-02-21T04:33:32;30.20;;;12.60;;
5428;SDS011;2737;52.386;9.980;2024-02-21T04:35:59;34.80;;;12.77;;
5428;SDS011;2737;52.386;9.980;2024-02-21T04:38:27;29.70;;;11.10;;
5428;SDS011;2737;52.386;9.980;2024-02-21T04:40:54;28.00;;;11.63;;
5428;SDS011;2737;52.386;9.980;2024-02-21T04:43:24;27.80;;;12.60;;
5428;SDS011;2737;52.386;9.980;2024-02-21T04:45:51;23.40;;;11.50;;
5428;SDS011;2737;52.386;9.980;2024-02-21T04:48:19;23.83;;;10.37;;
5428;SDS011;2737;52.386;9.980;2024-02-21T04:50:46;38.67;;;13.77;;
5428;SDS011;2737;52.386;9.980;2024-02-21T04:53:13;22.37;;;11.80;;
5428;SDS011;2737;52.386;9.980;2024-02-21T04:55:41;30.97;;;11.63;;
5428;SDS011;2737;52.386;9.980;2024-02-21T04:58:08;25.50;;;11.60;;
5428;SDS011;2737;52.386;9.980;2024-02-21T05:00:36;33.30;;;12.93;;
5428;SDS011;2737;52.386;9.980;2024-02-21T05:03:03;24.23;;;12.53;;
5428;SDS011;2737;52.386;9.980;2024-02-21T05:05:30;35.73;;;13.07;;
5428;SDS011;2737;52.386;9.980;2024-02-21T05:07:57;27.33;;;11.03;;
5428;SDS011;2737;52.386;9.980;2024-02-21T05:10:25;30.60;;;11.83;;
5428;SDS011;2737;52.386;9.980;2024-02-21T05:12:52;24.37;;;11.90;;
5428;SDS011;2737;52.386;9.980;2024-02-21T05:15:19;31.23;;;12.40;;
5428;SDS011;2737;52.386;9.980;2024-02-21T05:17:47;26.90;;;12.33;;
5428;SDS011;2737;52.386;9.980;2024-02-21T05:20:14;27.17;;;13.00;;
5428;SDS011;2737;52.386;9.980;2024-02-21T05:22:41;29.30;;;12.50;;
5428;SDS011;2737;52.386;9.980;2024-02-21T05:25:09;35.93;;;13.20;;
5428;SDS011;2737;52.386;9.980;2024-02-21T05:27:36;22.53;;;12.50;;
5428;SDS011;2737;52.386;9.980;2024-02-21T05:30:04;34.30;;;12.80;;
5428;SDS011;2737;52.386;9.980;2024-02-21T05:32:32;24.60;;;12.60;;
5428;SDS011;2737;52.386;9.980;2024-02-21T05:35:01;29.67;;;12.50;;
5428;SDS011;2737;52.386;9.980;2024-02-21T05:37:28;32.40;;;13.40;;
5428;SDS011;2737;52.386;9.980;2024-02-21T05:39:55;35.87;;;13.80;;
5428;SDS011;2737;52.386;9.980;2024-02-21T05:42:22;27.60;;;13.00;;
5428;SDS011;2737;52.386;9.980;2024-02-21T05:44:49;22.83;;;12.23;;
5428;SDS011;2737;52.386;9.980;2024-02-21T05:47:16;25.77;;;12.97;;
5428;SDS011;2737;52.386;9.980;2024-02-21T05:49:45;28.87;;;12.60;;
5428;SDS011;2737;52.386;9.980;2024-02-21T05:52:14;23.20;;;12.70;;
5428;SDS011;2737;52.386;9.980;2024-02-21T05:54:41;29.80;;;12.10;;
5428;SDS011;2737;52.386;9.980;2024-02-21T05:57:08;31.83;;;13.33;;
5428;SDS011;2737;52.386;9.980;2024-02-21T05:59:37;26.40;;;12.30;;
5428;SDS011;2737;52.386;9.980;2024-02-21T06:02:05;41.73;;;12.53;;
5428;SDS011;2737;52.386;9.980;2024-02-21T06:04:32;30.20;;;12.23;;
5428;SDS011;2737;52.386;9.980;2024-02-21T06:06:59;30.57;;;13.17;;
5428;SDS011;2737;52.386;9.980;2024-02-21T06:09:27;26.67;;;13.17;;
5428;SDS011;2737;52.386;9.980;2024-02-21T06:11:54;29.80;;;13.10;;
5428;SDS011;2737;52.386;9.980;2024-02-21T06:14:21;32.30;;;12.47;;
5428;SDS011;2737;52.386;9.980;2024-02-21T06:16:48;25.97;;;12.13;;
5428;SDS011;2737;52.386;9.980;2024-02-21T06:19:15;24.23;;;13.20;;
5428;SDS011;2737;52.386;9.980;2024-02-21T06:21:42;24.20;;;14.60;;
5428;SDS011;2737;52.386;9.980;2024-02-21T06:24:09;24.80;;;12.73;;
5428;SDS011;2737;52.386;9.980;2024-02-21T06:26:39;31.30;;;15.40;;
5428;SDS011;2737;52.386;9.980;2024-02-21T06:29:06;27.63;;;14.20;;
5428;SDS011;2737;52.386;9.980;2024-02-21T06:31:34;23.03;;;13.13;;
5428;SDS011;2737;52.386;9.980;2024-02-21T06:34:02;32.73;;;13.50;;
5428;SDS011;2737;52.386;9.980;2024-02-21T06:36:29;27.73;;;13.93;;
5428;SDS011;2737;52.386;9.980;2024-02-21T06:38:56;30.00;;;14.27;;
5428;SDS011;2737;52.386;9.980;2024-02-21T06:41:23;39.30;;;18.10;;
5428;SDS011;2737;52.386;9.980;2024-02-21T06:43:52;33.77;;;13.73;;
5428;SDS011;2737;52.386;9.980;2024-02-21T06:46:22;35.30;;;18.70;;
5428;SDS011;2737;52.386;9.980;2024-02-21T06:48:50;27.70;;;12.80;;
5428;SDS011;2737;52.386;9.980;2024-02-21T06:51:17;24.53;;;11.77;;
5428;SDS011;2737;52.386;9.980;2024-02-21T06:53:44;25.63;;;12.50;;
5428;SDS011;2737;52.386;9.980;2024-02-21T06:56:11;24.20;;;12.10;;
5428;SDS011;2737;52.386;9.980;2024-02-21T06:58:38;27.60;;;11.43;;
5428;SDS011;2737;52.386;9.980;2024-02-21T07:01:07;21.40;;;12.53;;
5428;SDS011;2737;52.386;9.980;2024-02-21T07:03:34;32.93;;;11.80;;
5428;SDS011;2737;52.386;9.980;2024-02-21T07:06:02;22.17;;;12.17;;
5428;SDS011;2737;52.386;9.980;2024-02-21T07:08:29;31.17;;;14.17;;
5428;SDS011;2737;52.386;9.980;2024-02-21T07:10:56;76.97;;;26.17;;
5428;SDS011;2737;52.386;9.980;2024-02-21T07:13:23;62.27;;;26.63;;
5428;SDS011;2737;52.386;9.980;2024-02-21T07:15:50;33.90;;;14.50;;
5428;SDS011;2737;52.386;9.980;2024-02-21T07:18:18;31.07;;;13.47;;
5428;SDS011;2737;52.386;9.980;2024-02-21T07:20:46;25.80;;;14.40;;
5428;SDS011;2737;52.386;9.980;2024-02-21T07:23:13;29.30;;;14.10;;
5428;SDS011;2737;52.386;9.980;2024-02-21T07:25:40;21.33;;;11.03;;
5428;SDS011;2737;52.386;9.980;2024-02-21T07:28:07;26.67;;;11.47;;
5428;SDS011;2737;52.386;9.980;2024-02-21T07:30:34;26.97;;;12.40;;
5428;SDS011;2737;52.386;9.980;2024-02-21T07:33:01;21.10;;;11.60;;
5428;SDS011;2737;52.386;9.980;2024-02-21T07:35:30;23.03;;;12.00;;
5428;SDS011;2737;52.386;9.980;2024-02-21T07:37:57;25.37;;;12.47;;
5428;SDS011;2737;52.386;9.980;2024-02-21T07:40:24;21.90;;;11.83;;
5428;SDS011;2737;52.386;9.980;2024-02-21T07:42:51;38.63;;;11.60;;
5428;SDS011;2737;52.386;9.980;2024-02-21T07:45:18;30.67;;;12.77;;
5428;SDS011;2737;52.386;9.980;2024-02-21T07:47:48;19.30;;;11.17;;
5428;SDS011;2737;52.386;9.980;2024-02-21T07:50:15;21.23;;;9.60;;
5428;SDS011;2737;52.386;9.980;2024-02-21T07:52:44;25.83;;;11.27;;
5428;SDS011;2737;52.386;9.980;2024-02-21T07:55:11;25.07;;;12.03;;
5428;SDS011;2737;52.386;9.980;2024-02-21T07:57:38;26.00;;;11.53;;
5428;SDS011;2737;52.386;9.980;2024-02-21T08:00:06;25.43;;;11.33;;
5428;SDS011;2737;52.386;9.980;2024-02-21T08:02:34;27.30;;;12.70;;
5428;SDS011;2737;52.386;9.980;2024-02-21T08:05:03;25.50;;;10.37;;
5428;SDS011;2737;52.386;9.980;2024-02-21T08:07:30;24.93;;;11.30;;
5428;SDS011;2737;52.386;9.980;2024-02-21T08:09:58;20.30;;;9.73;;
5428;SDS011;2737;52.386;9.980;2024-02-21T08:12:25;22.60;;;10.70;;
5428;SDS011;2737;52.386;9.980;2024-02-21T08:14:53;21.00;;;10.13;;
5428;SDS011;2737;52.386;9.980;2024-02-21T08:17:20;21.80;;;9.47;;
5428;SDS011;2737;52.386;9.980;2024-02-21T08:19:47;27.43;;;10.63;;
5428;SDS011;2737;52.386;9.980;2024-02-21T08:22:15;19.43;;;8.80;;
5428;SDS011;2737;52.386;9.980;2024-02-21T08:24:42;17.83;;;9.50;;
5428;SDS011;2737;52.386;9.980;2024-02-21T08:27:10;18.50;;;10.70;;
5428;SDS011;2737;52.386;9.980;2024-02-21T08:29:37;20.10;;;10.10;;
5428;SDS011;2737;52.386;9.980;2024-02-21T08:32:04;18.33;;;9.60;;
5428;SDS011;2737;52.386;9.980;2024-02-21T08:34:31;18.37;;;10.00;;
5428;SDS011;2737;52.386;9.980;2024-02-21T08:36:59;23.40;;;10.27;;
5428;SDS011;2737;52.386;9.980;2024-02-21T08:39:26;26.87;;;10.33;;
5428;SDS011;2737;52.386;9.980;2024-02-21T08:41:55;18.30;;;9.30;;
5428;SDS011;2737;52.386;9.980;2024-02-21T08:44:24;21.50;;;9.50;;
5428;SDS011;2737;52.386;9.980;2024-02-21T08:46:52;17.63;;;9.20;;
5428;SDS011;2737;52.386;9.980;2024-02-21T08:49:19;15.80;;;9.23;;
5428;SDS011;2737;52.386;9.980;2024-02-21T08:51:46;21.03;;;9.07;;
5428;SDS011;2737;52.386;9.980;2024-02-21T08:54:13;19.73;;;8.53;;
5428;SDS011;2737;52.386;9.980;2024-02-21T08:56:40;28.03;;;12.80;;
5428;SDS011;2737;52.386;9.980;2024-02-21T08:59:07;15.00;;;9.43;;
5428;SDS011;2737;52.386;9.980;2024-02-21T09:01:35;15.53;;;7.97;;
5428;SDS011;2737;52.386;9.980;2024-02-21T09:04:02;21.20;;;8.57;;
5428;SDS011;2737;52.386;9.980;2024-02-21T09:06:30;20.83;;;10.40;;
5428;SDS011;2737;52.386;9.980;2024-02-21T09:08:58;26.80;;;10.83;;
5428;SDS011;2737;52.386;9.980;2024-02-21T09:11:25;19.13;;;10.60;;
5428;SDS011;2737;52.386;9.980;2024-02-21T09:13:53;20.97;;;9.00;;
5428;SDS011;2737;52.386;9.980;2024-02-21T09:16:20;21.07;;;9.00;;
5428;SDS011;2737;52.386;9.980;2024-02-21T09:18:49;21.33;;;8.00;;
5428;SDS011;2737;52.386;9.980;2024-02-21T09:21:17;19.13;;;7.30;;
5428;SDS011;2737;52.386;9.980;2024-02-21T09:23:45;15.33;;;6.97;;
5428;SDS011;2737;52.386;9.980;2024-02-21T09:26:12;12.83;;;6.50;;
5428;SDS011;2737;52.386;9.980;2024-02-21T09:28:41;21.23;;;7.73;;
5428;SDS011;2737;52.386;9.980;2024-02-21T09:31:08;17.43;;;6.47;;
5428;SDS011;2737;52.386;9.980;2024-02-21T09:33:35;12.73;;;5.90;;
5428;SDS011;2737;52.386;9.980;2024-02-21T09:36:05;11.10;;;6.33;;
5428;SDS011;2737;52.386;9.980;2024-02-21T09:38:32;23.70;;;8.37;;
5428;SDS011;2737;52.386;9.980;2024-02-21T09:41:00;17.10;;;7.47;;
5428;SDS011;2737;52.386;9.980;2024-02-21T09:43:33;12.07;;;6.20;;
5428;SDS011;2737;52.386;9.980;2024-02-21T09:45:59;13.23;;;5.60;;
5428;SDS011;2737;52.386;9.980;2024-02-21T09:48:33;10.30;;;6.40;;
5428;SDS011;2737;52.386;9.980;2024-02-21T09:51:11;13.70;;;6.10;;
5428;SDS011;2737;52.386;9.980;2024-02-21T09:53:40;11.70;;;5.50;;
5428;SDS011;2737;52.386;9.980;2024-02-21T09:56:09;16.60;;;6.13;;
5428;SDS011;2737;52.386;9.980;2024-02-21T09:58:36;14.50;;;5.77;;
5428;SDS011;2737;52.386;9.980;2024-02-21T10:01:06;11.23;;;5.40;;
5428;SDS011;2737;52.386;9.980;2024-02-21T10:03:34;7.00;;;4.97;;
5428;SDS011;2737;52.386;9.980;2024-02-21T10:06:01;13.80;;;6.10;;
5428;SDS011;2737;52.386;9.980;2024-02-21T10:08:29;11.60;;;6.50;;
5428;SDS011;2737;52.386;9.980;2024-02-21T10:10:56;13.23;;;6.33;;
5428;SDS011;2737;52.386;9.980;2024-02-21T10:13:25;18.50;;;7.57;;
5428;SDS011;2737;52.386;9.980;2024-02-21T10:16:02;16.83;;;6.63;;
5428;SDS011;2737;52.386;9.980;2024-02-21T10:18:30;10.17;;;5.60;;
5428;SDS011;2737;52.386;9.980;2024-02-21T10:21:03;16.20;;;7.43;;
5428;SDS011;2737;52.386;9.980;2024-02-21T10:23:42;13.20;;;5.90;;
5428;SDS011;2737;52.386;9.980;2024-02-21T10:26:10;11.93;;;6.37;;
5428;SDS011;2737;52.386;9.980;2024-02-21T10:28:38;13.27;;;4.23;;
5428;SDS011;2737;52.386;9.980;2024-02-21T10:31:08;11.53;;;4.80;;
5428;SDS011;2737;52.386;9.980;2024-02-21T10:33:36;7.00;;;4.27;;
5428;SDS011;2737;52.386;9.980;2024-02-21T10:36:07;6.67;;;4.30;;
5428;SDS011;2737;52.386;9.980;2024-02-21T10:38:34;13.87;;;5.13;;
5428;SDS011;2737;52.386;9.980;2024-02-21T10:41:04;10.40;;;4.83;;
5428;SDS011;2737;52.386;9.980;2024-02-21T10:43:33;7.87;;;4.10;;
5428;SDS011;2737;52.386;9.980;2024-02-21T10:46:05;13.43;;;5.83;;
5428;SDS011;2737;52.386;9.980;2024-02-21T10:48:38;18.60;;;8.40;;
5428;SDS011;2737;52.386;9.980;2024-02-21T10:51:12;7.47;;;3.93;;
5428;SDS011;2737;52.386;9.980;2024-02-21T10:53:44;9.30;;;4.80;;
5428;SDS011;2737;52.386;9.980;2024-02-21T10:56:22;15.83;;;6.73;;
5428;SDS011;2737;52.386;9.980;2024-02-21T10:58:52;12.93;;;5.17;;
5428;SDS011;2737;52.386;9.980;2024-02-21T11:01:21;11.77;;;3.90;;
5428;SDS011;2737;52.386;9.980;2024-02-21T11:03:52;11.20;;;4.03;;
5428;SDS011;2737;52.386;9.980;2024-02-21T11:06:21;17.77;;;4.03;;
5428;SDS011;2737;52.386;9.980;2024-02-21T11:08:58;5.80;;;3.00;;
5428;SDS011;2737;52.386;9.980;2024-02-21T11:11:31;7.20;;;3.27;;
5428;SDS011;2737;52.386;9.980;2024-02-21T11:14:03;4.30;;;2.70;;
5428;SDS011;2737;52.386;9.980;2024-02-21T11:16:35;10.60;;;3.30;;
5428;SDS011;2737;52.386;9.980;2024-02-21T11:19:05;8.13;;;2.60;;
5428;SDS011;2737;52.386;9.980;2024-02-21T11:21:33;8.57;;;2.50;;
5428;SDS011;2737;52.386;9.980;2024-02-21T11:24:01;5.40;;;2.73;;
5428;SDS011;2737;52.386;9.980;2024-02-21T11:26:28;7.87;;;2.80;;
5428;SDS011;2737;52.386;9.980;2024-02-21T11:28:57;13.90;;;2.70;;
5428;SDS011;2737;52.386;9.980;2024-02-21T11:31:25;6.80;;;2.53;;
5428;SDS011;2737;52.386;9.980;2024-02-21T11:33:53;9.80;;;2.63;;
5428;SDS011;2737;52.386;9.980;2024-02-21T11:36:24;4.33;;;2.17;;
5428;SDS011;2737;52.386;9.980;2024-02-21T11:38:52;5.83;;;2.20;;
5428;SDS011;2737;52.386;9.980;2024-02-21T11:41:19;6.07;;;2.10;;
5428;SDS011;2737;52.386;9.980;2024-02-21T11:43:49;6.57;;;2.17;;
5428;SDS011;2737;52.386;9.980;2024-02-21T11:46:16;5.70;;;1.87;;
5428;SDS011;2737;52.386;9.980;2024-02-21T11:48:45;7.17;;;2.00;;
5428;SDS011;2737;52.386;9.980;2024-02-21T11:51:20;10.73;;;2.10;;
5428;SDS011;2737;52.386;9.980;2024-02-21T11:53:50;6.43;;;1.80;;
5428;SDS011;2737;52.386;9.980;2024-02-21T11:56:17;6.00;;;1.83;;
5428;SDS011;2737;52.386;9.980;2024-02-21T11:58:45;6.00;;;2.10;;
5428;SDS011;2737;52.386;9.980;2024-02-21T12:01:14;4.67;;;2.03;;
5428;SDS011;2737;52.386;9.980;2024-02-21T12:03:41;3.80;;;2.30;;
5428;SDS011;2737;52.386;9.980;2024-02-21T12:06:15;7.27;;;2.30;;
5428;SDS011;2737;52.386;9.980;2024-02-21T12:08:45;3.17;;;1.83;;
5428;SDS011;2737;52.386;9.980;2024-02-21T12:11:15;6.10;;;2.10;;
5428;SDS011;2737;52.386;9.980;2024-02-21T12:13:44;8.17;;;2.43;;
5428;SDS011;2737;52.386;9.980;2024-02-21T12:16:15;5.13;;;2.00;;
5428;SDS011;2737;52.386;9.980;2024-02-21T12:18:44;6.03;;;1.70;;
5428;SDS011;2737;52.386;9.980;2024-02-21T12:21:11;8.70;;;2.63;;
5428;SDS011;2737;52.386;9.980;2024-02-21T12:23:38;7.20;;;2.10;;
5428;SDS011;2737;52.386;9.980;2024-02-21T12:26:05;3.10;;;2.07;;
5428;SDS011;2737;52.386;9.980;2024-02-21T12:28:33;7.43;;;2.03;;
5428;SDS011;2737;52.386;9.980;2024-02-21T12:31:00;10.23;;;2.33;;
5428;SDS011;2737;52.386;9.980;2024-02-21T12:33:30;4.73;;;2.40;;
5428;SDS011;2737;52.386;9.980;2024-02-21T12:35:58;4.10;;;2.57;;
5428;SDS011;2737;52.386;9.980;2024-02-21T12:38:25;12.40;;;3.23;;
5428;SDS011;2737;52.386;9.980;2024-02-21T12:40:52;7.63;;;2.70;;
5428;SDS011;2737;52.386;9.980;2024-02-21T12:43:19;8.03;;;2.90;;
5428;SDS011;2737;52.386;9.980;2024-02-21T12:45:47;5.07;;;2.97;;
5428;SDS011;2737;52.386;9.980;2024-02-21T12:48:14;5.27;;;2.80;;
5428;SDS011;2737;52.386;9.980;2024-02-21T12:50:43;10.20;;;3.63;;
5428;SDS011;2737;52.386;9.980;2024-02-21T12:53:16;7.40;;;3.20;;
5428;SDS011;2737;52.386;9.980;2024-02-21T12:55:44;10.53;;;3.80;;
5428;SDS011;2737;52.386;9.980;2024-02-21T12:58:12;6.07;;;3.47;;
5428;SDS011;2737;52.386;9.980;2024-02-21T13:00:39;5.40;;;2.73;;
5428;SDS011;2737;52.386;9.980;2024-02-21T13:03:06;7.30;;;3.17;;
5428;SDS011;2737;52.386;9.980;2024-02-21T13:05:34;10.90;;;3.77;;
5428;SDS011;2737;52.386;9.980;2024-02-21T13:08:03;6.83;;;3.60;;
5428;SDS011;2737;52.386;9.980;2024-02-21T13:10:30;14.00;;;3.50;;
5428;SDS011;2737;52.386;9.980;2024-02-21T13:12:58;6.97;;;3.10;;
5428;SDS011;2737;52.386;9.980;2024-02-21T13:15:25;7.50;;;4.07;;
5428;SDS011;2737;52.386;9.980;2024-02-21T13:17:53;10.97;;;4.70;;
5428;SDS011;2737;52.386;9.980;2024-02-21T13:20:20;8.83;;;4.30;;
5428;SDS011;2737;52.386;9.980;2024-02-21T13:22:47;10.13;;;4.63;;
5428;SDS011;2737;52.386;9.980;2024-02-21T13:25:15;10.20;;;5.30;;
5428;SDS011;2737;52.386;9.980;2024-02-21T13:27:45;10.63;;;5.57;;
5428;SDS011;2737;52.386;9.980;2024-02-21T13:30:12;13.43;;;5.13;;
5428;SDS011;2737;52.386;9.980;2024-02-21T13:32:41;9.73;;;5.10;;
5428;SDS011;2737;52.386;9.980;2024-02-21T13:35:08;9.00;;;5.67;;
5428;SDS011;2737;52.386;9.980;2024-02-21T13:37:36;14.07;;;6.20;;
5428;SDS011;2737;52.386;9.980;2024-02-21T13:40:04;14.13;;;5.27;;
5428;SDS011;2737;52.386;9.980;2024-02-21T13:42:32;16.73;;;5.90;;
5428;SDS011;2737;52.386;9.980;2024-02-21T13:44:59;14.60;;;6.20;;
5428;SDS011;2737;52.386;9.980;2024-02-21T13:47:27;11.60;;;6.23;;
5428;SDS011;2737;52.386;9.980;2024-02-21T13:49:54;10.37;;;4.93;;
5428;SDS011;2737;52.386;9.980;2024-02-21T13:52:22;12.07;;;4.97;;
5428;SDS011;2737;52.386;9.980;2024-02-21T13:54:51;10.30;;;4.53;;
5428;SDS011;2737;52.386;9.980;2024-02-21T13:57:18;15.43;;;4.60;;
5428;SDS011;2737;52.386;9.980;2024-02-21T13:59:48;9.43;;;4.33;;
5428;SDS011;2737;52.386;9.980;2024-02-21T14:02:16;9.47;;;5.50;;
5428;SDS011;2737;52.386;9.980;2024-02-21T14:04:43;7.90;;;4.30;;
5428;SDS011;2737;52.386;9.980;2024-02-21T14:07:10;11.90;;;4.87;;
5428;SDS011;2737;52.386;9.980;2024-02-21T14:09:37;11.37;;;4.50;;
5428;SDS011;2737;52.386;9.980;2024-02-21T14:12:04;10.43;;;5.17;;
5428;SDS011;2737;52.386;9.980;2024-02-21T14:14:33;6.50;;;4.20;;
5428;SDS011;2737;52.386;9.980;2024-02-21T14:17:02;6.50;;;3.40;;
5428;SDS011;2737;52.386;9.980;2024-02-21T14:19:29;6.90;;;3.30;;
5428;SDS011;2737;52.386;9.980;2024-02-21T14:21:56;6.63;;;3.37;;
5428;SDS011;2737;52.386;9.980;2024-02-21T14:24:23;9.20;;;3.53;;
5428;SDS011;2737;52.386;9.980;2024-02-21T14:26:52;9.03;;;3.07;;
5428;SDS011;2737;52.386;9.980;2024-02-21T14:29:20;8.30;;;3.17;;
5428;SDS011;2737;52.386;9.980;2024-02-21T14:31:47;6.17;;;2.47;;
5428;SDS011;2737;52.386;9.980;2024-02-21T14:34:15;7.73;;;2.40;;
5428;SDS011;2737;52.386;9.980;2024-02-21T14:36:42;6.60;;;2.30;;
5428;SDS011;2737;52.386;9.980;2024-02-21T14:39:09;5.53;;;2.27;;
5428;SDS011;2737;52.386;9.980;2024-02-21T14:41:36;7.57;;;2.60;;
5428;SDS011;2737;52.386;9.980;2024-02-21T14:44:04;7.73;;;3.03;;
5428;SDS011;2737;52.386;9.980;2024-02-21T14:46:35;4.33;;;2.20;;
5428;SDS011;2737;52.386;9.980;2024-02-21T14:49:03;5.70;;;2.30;;
5428;SDS011;2737;52.386;9.980;2024-02-21T14:51:31;10.90;;;2.57;;
5428;SDS011;2737;52.386;9.980;2024-02-21T14:53:59;9.03;;;3.00;;
5428;SDS011;2737;52.386;9.980;2024-02-21T14:56:26;7.80;;;2.37;;
5428;SDS011;2737;52.386;9.980;2024-02-21T14:58:53;8.57;;;2.63;;